Time;durP1;ratioP1;P1;durP2;ratioP2;P2;SDS_P1;SDS_P2;PMS_P1;PMS_P2;Temp;Humidity;BMP_temperature;BMP_pressure;BME280_temperature;BME280_humidity;BME280_pressure;Samples;Min_cycle;Max_cycle;Signal;HPM_P1;HPM_P2
2022/02/19 00:02:16;;;;;;;8.03;2.13;;;7.10;99.70;;;;;;5092093;28;20473;-67
2022/02/19 00:04:42;;;;;;;3.00;1.60;;;7.00;99.70;;;;;;5092129;28;20464;-68
2022/02/19 00:07:09;;;;;;;5.17;2.10;;;7.10;99.70;;;;;;5091563;28;20437;-68
2022/02/19 00:09:36;;;;;;;5.27;2.20;;;7.10;99.70;;;;;;5091338;28;20452;-68
2022/02/19 00:12:04;;;;;;;3.57;1.50;;;7.00;99.70;;;;;;5091729;28;21023;-68
2022/02/19 00:14:31;;;;;;;10.83;2.00;;;7.10;99.70;;;;;;5091915;28;20478;-68
2022/02/19 00:16:58;;;;;;;6.93;2.10;;;7.20;99.70;;;;;;5091731;28;20449;-68
2022/02/19 00:19:25;;;;;;;4.00;1.80;;;7.20;99.70;;;;;;5091675;28;20433;-68
2022/02/19 00:21:51;;;;;;;8.00;2.00;;;7.00;99.70;;;;;;5091663;28;20812;-69
2022/02/19 00:24:18;;;;;;;5.07;1.73;;;7.00;99.70;;;;;;5091854;28;20442;-68
2022/02/19 00:26:45;;;;;;;5.77;1.80;;;7.00;99.70;;;;;;5091484;28;20452;-68
2022/02/19 00:29:13;;;;;;;4.40;1.80;;;7.00;99.70;;;;;;5091583;28;20441;-68
2022/02/19 00:31:40;;;;;;;4.60;1.90;;;6.90;99.70;;;;;;5091686;28;20438;-67
2022/02/19 00:34:07;;;;;;;6.20;2.00;;;7.10;99.70;;;;;;5091456;28;20482;-68
2022/02/19 00:36:34;;;;;;;7.17;1.90;;;7.10;99.70;;;;;;5090682;28;20446;-68
2022/02/19 00:39:00;;;;;;;6.83;1.70;;;6.90;99.70;;;;;;5091610;28;20442;-68
2022/02/19 00:41:27;;;;;;;3.57;1.70;;;6.90;99.70;;;;;;5091615;28;20860;-68
2022/02/19 00:43:55;;;;;;;6.23;1.90;;;6.90;99.70;;;;;;5091555;28;20466;-68
2022/02/19 00:46:23;;;;;;;7.50;2.03;;;6.90;99.70;;;;;;5091279;28;20470;-68
2022/02/19 00:48:49;;;;;;;4.37;2.00;;;6.90;99.70;;;;;;5091350;28;20936;-68
2022/02/19 00:51:16;;;;;;;4.20;1.90;;;7.10;99.70;;;;;;5091663;28;20442;-68
2022/02/19 00:53:43;;;;;;;7.73;1.77;;;7.30;99.70;;;;;;5090853;28;20481;-68
2022/02/19 00:56:10;;;;;;;6.83;1.60;;;7.30;99.70;;;;;;5090948;28;20441;-68
2022/02/19 00:58:37;;;;;;;7.37;1.70;;;7.40;99.70;;;;;;5091211;28;20442;-68
2022/02/19 01:01:03;;;;;;;7.60;1.97;;;7.40;99.70;;;;;;5091303;28;20442;-68
2022/02/19 01:03:31;;;;;;;9.37;1.93;;;7.40;99.70;;;;;;5091316;28;20484;-68
2022/02/19 01:05:58;;;;;;;7.40;1.60;;;7.40;99.70;;;;;;5090934;28;20454;-68
2022/02/19 01:08:25;;;;;;;7.37;1.90;;;7.50;99.70;;;;;;5090745;28;20900;-68
2022/02/19 01:10:52;;;;;;;5.43;2.10;;;7.50;99.70;;;;;;5091385;28;20445;-68
2022/02/19 01:13:19;;;;;;;4.27;2.20;;;7.50;99.70;;;;;;5091013;28;20492;-68
2022/02/19 01:15:45;;;;;;;7.10;2.07;;;7.60;99.70;;;;;;5090756;28;20442;-68
2022/02/19 01:18:12;;;;;;;5.60;1.80;;;7.60;99.70;;;;;;5091061;28;20499;-67
2022/02/19 01:20:42;;;;;;;9.10;1.80;;;7.60;99.70;;;;;;5088917;28;20441;-68
2022/02/19 01:23:09;;;;;;;8.47;3.03;;;7.60;99.70;;;;;;5090887;28;20561;-68
2022/02/19 01:25:36;;;;;;;11.53;1.90;;;7.50;99.70;;;;;;5090670;28;20453;-68
2022/02/19 01:28:03;;;;;;;7.10;2.00;;;7.40;99.70;;;;;;5090990;28;20441;-68
2022/02/19 01:30:29;;;;;;;9.43;1.80;;;7.40;99.70;;;;;;5090550;28;20437;-67
2022/02/19 01:32:56;;;;;;;10.03;1.70;;;7.40;99.70;;;;;;5090792;28;20485;-68
2022/02/19 01:35:23;;;;;;;7.73;1.80;;;7.40;99.70;;;;;;5090774;28;20442;-68
2022/02/19 01:37:51;;;;;;;6.93;1.80;;;7.60;99.70;;;;;;5090926;28;20445;-68
2022/02/19 01:40:18;;;;;;;8.47;2.00;;;7.60;99.70;;;;;;5090792;28;20445;-67
2022/02/19 01:42:44;;;;;;;7.10;2.03;;;7.60;99.70;;;;;;5090916;28;20469;-68
2022/02/19 01:45:14;;;;;;;4.53;1.57;;;7.50;99.70;;;;;;5090761;28;20438;-67
2022/02/19 01:47:40;;;;;;;5.90;1.77;;;7.60;99.70;;;;;;5091321;28;20441;-68
2022/02/19 01:50:08;;;;;;;5.57;1.87;;;7.60;99.70;;;;;;5094882;28;20493;-67
2022/02/19 01:52:36;;;;;;;5.00;1.83;;;7.60;99.70;;;;;;5094791;28;20468;-68
2022/02/19 01:55:05;;;;;;;6.60;1.70;;;7.50;99.70;;;;;;5094200;28;20485;-68
2022/02/19 01:57:32;;;;;;;3.97;1.73;;;7.50;99.70;;;;;;5094669;28;20808;-67
2022/02/19 01:59:59;;;;;;;6.17;1.60;;;7.50;99.70;;;;;;5094658;28;20445;-68
2022/02/19 02:02:26;;;;;;;6.97;2.47;;;7.40;99.70;;;;;;5094468;28;20973;-68
2022/02/19 02:04:52;;;;;;;7.07;1.80;;;7.50;99.70;;;;;;5094334;28;20936;-68
2022/02/19 02:07:20;;;;;;;8.87;1.97;;;7.40;99.70;;;;;;5094262;28;20449;-67
2022/02/19 02:09:46;;;;;;;6.27;1.60;;;7.40;99.70;;;;;;5093712;28;20499;-68
2022/02/19 02:12:15;;;;;;;7.37;2.10;;;7.40;99.70;;;;;;5094444;28;20457;-67
2022/02/19 02:14:42;;;;;;;3.43;1.87;;;7.30;99.70;;;;;;5094227;28;20568;-68
2022/02/19 02:17:11;;;;;;;8.60;2.40;;;7.30;99.70;;;;;;5093981;28;20438;-67
2022/02/19 02:19:38;;;;;;;13.47;2.30;;;7.40;99.70;;;;;;5094114;28;20445;-66
2022/02/19 02:22:08;;;;;;;6.90;1.70;;;7.40;99.70;;;;;;5093812;28;21000;-67
2022/02/19 02:24:36;;;;;;;5.90;1.63;;;7.30;99.70;;;;;;5133454;22;20494;-70
2022/02/19 02:27:05;;;;;;;10.17;1.93;;;7.30;99.70;;;;;;5071800;28;20439;-70
2022/02/19 02:29:32;;;;;;;8.10;2.30;;;7.30;99.70;;;;;;5073489;28;20936;-69
2022/02/19 02:31:59;;;;;;;9.87;2.27;;;7.30;99.70;;;;;;5073068;28;20435;-70
2022/02/19 02:34:26;;;;;;;13.33;2.10;;;7.30;99.70;;;;;;5072601;28;20482;-69
2022/02/19 02:36:52;;;;;;;7.03;1.90;;;7.30;99.70;;;;;;5072921;28;20451;-70
2022/02/19 02:39:20;;;;;;;6.23;2.23;;;7.20;99.70;;;;;;5072989;28;20450;-69
2022/02/19 02:41:47;;;;;;;3.40;1.67;;;7.20;99.70;;;;;;5072886;28;20848;-70
2022/02/19 02:44:14;;;;;;;9.30;2.63;;;7.10;99.70;;;;;;5073198;28;20459;-70
2022/02/19 02:46:41;;;;;;;9.70;1.80;;;7.20;99.70;;;;;;5072545;28;20482;-68
2022/02/19 02:49:07;;;;;;;4.50;1.70;;;7.10;99.70;;;;;;5073073;28;20445;-68
2022/02/19 02:51:34;;;;;;;12.93;1.83;;;7.20;99.70;;;;;;5073054;28;20451;-70
2022/02/19 02:54:01;;;;;;;8.03;2.00;;;7.20;99.70;;;;;;5072781;28;20539;-69
2022/02/19 02:56:29;;;;;;;5.20;1.77;;;7.20;99.70;;;;;;5072501;28;20454;-68
2022/02/19 02:58:55;;;;;;;8.40;1.73;;;7.10;99.70;;;;;;5072341;28;20469;-70
2022/02/19 03:01:22;;;;;;;7.07;2.23;;;7.10;99.70;;;;;;5072144;28;20526;-70
2022/02/19 03:03:49;;;;;;;7.00;2.33;;;7.10;99.70;;;;;;5072617;28;20466;-71
2022/02/19 03:06:15;;;;;;;6.87;2.27;;;7.10;99.70;;;;;;5072433;28;20448;-70
2022/02/19 03:08:42;;;;;;;8.20;2.50;;;7.10;99.70;;;;;;5071992;28;20873;-69
2022/02/19 03:11:09;;;;;;;5.00;1.70;;;7.00;99.70;;;;;;5072647;28;20450;-69
2022/02/19 03:13:37;;;;;;;9.37;2.00;;;7.00;99.70;;;;;;5071360;28;20479;-70
2022/02/19 03:16:04;;;;;;;5.10;1.80;;;7.00;99.70;;;;;;5072441;28;20469;-70
2022/02/19 03:18:30;;;;;;;6.80;2.00;;;7.00;99.70;;;;;;5072237;28;20443;-70
2022/02/19 03:20:57;;;;;;;5.30;1.80;;;7.00;99.70;;;;;;5072524;28;20454;-68
2022/02/19 03:23:24;;;;;;;6.80;2.13;;;7.00;99.70;;;;;;5072060;28;20478;-70
2022/02/19 03:25:50;;;;;;;13.43;3.17;;;7.00;99.70;;;;;;5071978;28;20443;-70
2022/02/19 03:28:17;;;;;;;7.50;2.20;;;6.90;99.70;;;;;;5071996;28;20451;-70
2022/02/19 03:30:45;;;;;;;7.70;2.20;;;6.90;99.70;;;;;;5072307;28;20443;-70
2022/02/19 03:33:12;;;;;;;8.30;2.30;;;6.90;99.70;;;;;;5071880;28;20840;-70
2022/02/19 03:35:38;;;;;;;10.00;3.00;;;7.00;99.70;;;;;;5071667;28;20910;-70
2022/02/19 03:38:05;;;;;;;7.27;2.50;;;6.90;99.70;;;;;;5071647;28;20454;-70
2022/02/19 03:40:32;;;;;;;7.13;1.87;;;6.90;99.70;;;;;;5071785;28;20965;-70
2022/02/19 03:42:59;;;;;;;8.57;2.17;;;6.90;99.70;;;;;;5071644;28;20463;-70
2022/02/19 03:45:26;;;;;;;4.33;1.80;;;6.90;99.70;;;;;;5071644;28;20857;-70
2022/02/19 03:47:54;;;;;;;6.13;2.03;;;6.80;99.70;;;;;;5071570;28;20447;-66
2022/02/19 03:50:20;;;;;;;11.27;3.60;;;6.80;99.70;;;;;;5071805;28;20469;-70
2022/02/19 03:52:47;;;;;;;9.90;2.80;;;6.80;99.70;;;;;;5071553;28;20447;-70
2022/02/19 03:55:14;;;;;;;7.50;2.27;;;6.80;99.70;;;;;;5071339;28;20482;-70
2022/02/19 03:57:41;;;;;;;8.80;2.00;;;6.80;99.70;;;;;;5071421;28;20910;-69
2022/02/19 04:00:11;;;;;;;7.83;1.87;;;6.90;99.70;;;;;;5071563;28;20447;-69
2022/02/19 04:02:38;;;;;;;4.10;1.53;;;6.80;99.70;;;;;;5071344;28;21289;-70
2022/02/19 04:05:09;;;;;;;4.67;2.03;;;6.80;99.70;;;;;;5071332;28;20451;-69
2022/02/19 04:07:36;;;;;;;7.70;1.80;;;6.80;99.70;;;;;;5071386;28;20442;-70
2022/02/19 04:10:03;;;;;;;7.63;1.77;;;6.70;99.70;;;;;;5070915;28;20946;-69
2022/02/19 04:12:29;;;;;;;3.60;1.90;;;6.70;99.70;;;;;;5071005;28;20442;-69
2022/02/19 04:14:56;;;;;;;6.53;1.87;;;6.70;99.70;;;;;;5071074;28;20475;-70
2022/02/19 04:17:23;;;;;;;8.50;1.90;;;6.70;99.70;;;;;;5071350;28;20443;-70
2022/02/19 04:19:52;;;;;;;4.53;1.80;;;6.60;99.70;;;;;;5070998;28;20450;-70
2022/02/19 04:22:20;;;;;;;8.50;1.90;;;6.60;99.70;;;;;;5071266;28;20447;-72
2022/02/19 04:24:47;;;;;;;6.07;1.60;;;6.60;99.70;;;;;;5070622;28;20471;-68
2022/02/19 04:27:14;;;;;;;5.83;1.90;;;6.50;99.70;;;;;;5071215;28;20534;-70
2022/02/19 04:29:40;;;;;;;10.20;2.83;;;6.50;99.70;;;;;;5070929;28;20462;-70
2022/02/19 04:32:08;;;;;;;4.23;1.63;;;6.50;99.70;;;;;;5071107;28;20902;-69
2022/02/19 04:34:35;;;;;;;6.30;2.10;;;6.50;99.70;;;;;;5070817;28;20479;-69
2022/02/19 04:37:02;;;;;;;12.43;1.70;;;6.50;99.70;;;;;;5070622;28;20466;-70
2022/02/19 04:39:30;;;;;;;5.87;2.13;;;6.50;99.70;;;;;;5070442;28;20439;-70
2022/02/19 04:41:57;;;;;;;4.87;1.60;;;6.40;99.70;;;;;;5070932;28;20474;-69
2022/02/19 04:44:23;;;;;;;7.00;1.80;;;6.40;99.70;;;;;;5070805;28;21053;-70
2022/02/19 04:46:50;;;;;;;4.40;1.63;;;6.40;99.70;;;;;;5070607;28;20447;-70
2022/02/19 04:49:17;;;;;;;4.43;1.77;;;6.30;99.70;;;;;;5070937;28;20556;-70
2022/02/19 04:51:43;;;;;;;5.30;1.70;;;6.30;99.70;;;;;;5070811;28;20450;-69
2022/02/19 04:54:10;;;;;;;11.77;2.03;;;6.30;99.70;;;;;;5070820;28;20509;-70
2022/02/19 04:56:38;;;;;;;7.90;2.83;;;6.30;99.70;;;;;;5070519;28;20492;-69
2022/02/19 04:59:05;;;;;;;8.43;2.10;;;6.20;99.70;;;;;;5070626;28;20439;-70
2022/02/19 05:01:32;;;;;;;4.90;1.63;;;6.20;99.70;;;;;;5070881;28;20500;-70
2022/02/19 05:03:58;;;;;;;7.43;1.90;;;6.20;99.70;;;;;;5070529;28;20466;-70
2022/02/19 05:06:25;;;;;;;4.47;1.90;;;6.20;99.70;;;;;;5070324;28;20450;-71
2022/02/19 05:08:52;;;;;;;4.60;1.70;;;6.10;99.70;;;;;;5069837;28;20459;-69
2022/02/19 05:11:18;;;;;;;13.07;2.00;;;6.20;99.70;;;;;;5071157;28;20496;-69
2022/02/19 05:13:46;;;;;;;6.97;2.00;;;6.10;99.70;;;;;;5070440;28;21181;-70
2022/02/19 05:16:13;;;;;;;6.00;2.37;;;6.20;99.70;;;;;;5070341;28;20949;-70
2022/02/19 05:18:40;;;;;;;3.77;1.80;;;6.20;99.70;;;;;;5070542;28;20449;-69
2022/02/19 05:21:06;;;;;;;7.10;1.93;;;6.00;99.70;;;;;;5070622;28;20864;-70
2022/02/19 05:23:35;;;;;;;7.47;1.83;;;6.00;99.70;;;;;;5072121;28;20470;-70
2022/02/19 05:26:01;;;;;;;5.43;1.73;;;6.00;99.70;;;;;;5074356;28;20442;-69
2022/02/19 05:28:28;;;;;;;7.43;2.00;;;6.00;99.70;;;;;;5074523;28;20445;-71
2022/02/19 05:30:56;;;;;;;7.03;1.67;;;6.00;99.70;;;;;;5074588;28;20438;-70
2022/02/19 05:33:23;;;;;;;7.13;1.90;;;6.00;99.70;;;;;;5074367;28;20546;-69
2022/02/19 05:35:50;;;;;;;9.00;2.17;;;5.90;99.70;;;;;;5073959;28;20478;-70
2022/02/19 05:38:16;;;;;;;4.97;1.70;;;6.00;99.70;;;;;;5074392;28;20458;-69
2022/02/19 05:40:43;;;;;;;6.80;1.90;;;6.00;99.70;;;;;;5073814;28;20950;-70
2022/02/19 05:43:10;;;;;;;9.47;1.60;;;6.10;99.70;;;;;;5074015;28;20858;-70
2022/02/19 05:45:36;;;;;;;6.30;2.10;;;6.00;99.70;;;;;;5073959;28;20449;-70
2022/02/19 05:48:05;;;;;;;6.70;1.80;;;6.00;99.70;;;;;;5074113;28;20446;-70
2022/02/19 05:50:32;;;;;;;5.30;1.60;;;5.90;99.70;;;;;;5074115;28;20451;-70
2022/02/19 05:52:58;;;;;;;8.37;2.57;;;5.80;99.70;;;;;;5074005;28;20466;-70
2022/02/19 05:55:25;;;;;;;6.57;1.90;;;5.90;99.70;;;;;;5073802;28;20829;-70
2022/02/19 05:57:52;;;;;;;9.33;1.73;;;6.00;99.70;;;;;;5073776;28;20442;-70
2022/02/19 06:00:19;;;;;;;4.50;1.87;;;5.90;99.70;;;;;;5073900;28;20525;-69
2022/02/19 06:02:45;;;;;;;9.60;2.13;;;5.90;99.70;;;;;;5073879;28;20442;-70
2022/02/19 06:05:13;;;;;;;10.70;2.20;;;5.80;99.70;;;;;;5073539;28;20462;-69
2022/02/19 06:07:41;;;;;;;4.93;1.70;;;5.90;99.70;;;;;;5073650;28;20454;-70
2022/02/19 06:10:09;;;;;;;6.07;2.03;;;5.90;99.70;;;;;;5072823;28;20874;-69
2022/02/19 06:12:36;;;;;;;4.47;1.63;;;5.80;99.70;;;;;;5073624;28;20755;-70
2022/02/19 06:15:03;;;;;;;7.07;2.20;;;5.80;99.70;;;;;;5073157;28;20488;-70
2022/02/19 06:17:30;;;;;;;6.73;2.07;;;5.80;99.70;;;;;;5073676;28;20450;-70
2022/02/19 06:19:56;;;;;;;6.13;1.60;;;5.70;99.70;;;;;;5073660;28;20504;-70
2022/02/19 06:22:24;;;;;;;7.43;1.87;;;5.70;99.70;;;;;;5073337;28;20453;-69
2022/02/19 06:24:51;;;;;;;7.83;1.90;;;5.60;99.70;;;;;;5072937;28;20482;-70
2022/02/19 06:27:18;;;;;;;7.57;1.80;;;5.60;99.70;;;;;;5073449;28;20824;-70
2022/02/19 06:29:45;;;;;;;5.37;1.70;;;5.60;99.70;;;;;;5073198;28;20451;-70
2022/02/19 06:32:11;;;;;;;6.93;1.67;;;5.50;99.70;;;;;;5073220;28;20443;-69
2022/02/19 06:34:38;;;;;;;7.37;2.40;;;5.60;99.70;;;;;;5073082;28;20486;-70
2022/02/19 06:37:05;;;;;;;6.70;1.67;;;5.60;99.70;;;;;;5073025;28;20442;-70
2022/02/19 06:39:33;;;;;;;9.30;2.00;;;5.60;99.70;;;;;;5072791;28;20458;-69
2022/02/19 06:42:00;;;;;;;3.97;1.57;;;5.60;99.70;;;;;;5073046;28;20818;-69
2022/02/19 06:44:27;;;;;;;8.87;2.60;;;5.50;99.70;;;;;;5072913;28;20516;-70
2022/02/19 06:46:54;;;;;;;7.70;1.80;;;5.50;99.70;;;;;;5073358;28;20466;-70
2022/02/19 06:49:21;;;;;;;7.33;1.80;;;5.60;99.70;;;;;;5073560;28;20822;-69
2022/02/19 06:51:48;;;;;;;5.83;1.80;;;5.50;99.70;;;;;;5073142;28;20862;-70
2022/02/19 06:54:14;;;;;;;8.10;1.90;;;5.50;99.70;;;;;;5072980;28;20798;-70
2022/02/19 06:56:42;;;;;;;9.17;2.30;;;5.60;99.70;;;;;;5072518;28;20911;-69
2022/02/19 06:59:10;;;;;;;10.17;2.40;;;5.60;99.70;;;;;;5072686;28;20980;-70
2022/02/19 07:01:37;;;;;;;10.00;1.80;;;5.70;99.70;;;;;;5072641;28;20454;-70
2022/02/19 07:04:04;;;;;;;5.30;1.70;;;5.60;99.70;;;;;;5072540;28;20478;-71
2022/02/19 07:06:31;;;;;;;7.67;2.00;;;5.60;99.70;;;;;;5072515;28;20445;-70
2022/02/19 07:08:58;;;;;;;2.67;1.77;;;5.60;99.70;;;;;;5071657;28;20447;-70
2022/02/19 07:11:25;;;;;;;4.63;1.63;;;5.60;99.70;;;;;;5072604;28;20542;-70
2022/02/19 07:13:53;;;;;;;7.37;1.50;;;5.70;99.70;;;;;;5072471;28;20977;-70
2022/02/19 07:16:20;;;;;;;8.73;1.67;;;5.60;99.70;;;;;;5072191;28;20573;-70
2022/02/19 07:18:47;;;;;;;6.40;2.03;;;5.80;99.70;;;;;;5069780;28;20486;-70
2022/02/19 07:21:14;;;;;;;4.90;1.97;;;5.80;99.70;;;;;;5070310;28;20453;-70
2022/02/19 07:23:41;;;;;;;4.60;1.67;;;5.70;99.70;;;;;;5065245;28;20487;-70
2022/02/19 07:26:07;;;;;;;4.87;1.63;;;5.80;99.70;;;;;;5066501;28;20451;-70
2022/02/19 07:28:34;;;;;;;5.33;1.60;;;5.90;99.70;;;;;;5070556;28;20799;-71
2022/02/19 07:31:03;;;;;;;4.63;2.00;;;5.80;99.70;;;;;;5071654;28;21128;-70
2022/02/19 07:33:30;;;;;;;5.33;2.00;;;5.90;99.70;;;;;;5069010;28;20466;-70
2022/02/19 07:35:57;;;;;;;6.20;1.90;;;5.90;99.70;;;;;;5070445;28;20653;-70
2022/02/19 07:38:24;;;;;;;5.80;2.10;;;5.90;99.70;;;;;;5070738;28;20461;-70
2022/02/19 07:40:51;;;;;;;6.67;1.90;;;6.00;99.70;;;;;;5071124;28;20546;-70
2022/02/19 07:43:18;;;;;;;8.47;2.93;;;6.00;99.70;;;;;;5068993;28;20473;-69
2022/02/19 07:45:46;;;;;;;9.20;1.90;;;6.00;99.70;;;;;;5067778;28;20588;-71
2022/02/19 07:48:16;;;;;;;7.53;1.83;;;6.10;99.70;;;;;;5070350;28;20458;-70
2022/02/19 07:58:56;;;;;;;6.53;1.90;;;6.10;99.70;;;;;;5070101;28;20860;-69
2022/02/19 08:01:23;;;;;;;6.90;2.13;;;6.20;99.70;;;;;;5070704;28;20448;-70
2022/02/19 08:03:54;;;;;;;7.37;2.90;;;6.20;99.70;;;;;;5070062;28;20461;-70
2022/02/19 08:06:21;;;;;;;8.10;2.33;;;6.30;99.70;;;;;;5070358;28;20451;-69
2022/02/19 08:08:48;;;;;;;7.73;2.00;;;6.40;99.70;;;;;;5070269;28;20455;-70
2022/02/19 08:11:17;;;;;;;8.57;2.07;;;6.40;99.70;;;;;;5070915;28;20483;-70
2022/02/19 08:13:44;;;;;;;5.40;2.10;;;6.30;99.70;;;;;;5071043;28;20463;-71
2022/02/19 08:16:11;;;;;;;6.40;1.60;;;6.30;99.70;;;;;;5070185;28;20548;-70
2022/02/19 08:18:38;;;;;;;8.50;1.70;;;6.80;99.70;;;;;;5070154;28;20451;-70
2022/02/19 08:21:07;;;;;;;6.10;2.00;;;7.40;99.70;;;;;;5070078;28;20930;-70
2022/02/19 08:23:33;;;;;;;5.67;2.20;;;7.60;99.40;;;;;;5069717;28;20834;-70
2022/02/19 08:26:00;;;;;;;10.13;2.00;;;7.90;99.70;;;;;;5064444;28;20448;-70
2022/02/19 08:28:27;;;;;;;3.63;1.50;;;8.20;98.20;;;;;;5068150;28;20451;-70
2022/02/19 08:30:54;;;;;;;9.30;1.90;;;8.20;97.50;;;;;;5070363;28;20443;-70
2022/02/19 08:33:20;;;;;;;7.33;1.80;;;8.30;97.80;;;;;;5069590;28;20462;-70
2022/02/19 08:35:48;;;;;;;4.90;1.80;;;7.90;98.10;;;;;;5070213;28;20474;-70
2022/02/19 08:38:16;;;;;;;7.07;1.93;;;7.50;99.20;;;;;;5070387;28;20860;-70
2022/02/19 08:40:43;;;;;;;9.87;2.20;;;7.30;99.70;;;;;;5070364;28;20461;-71
2022/02/19 08:43:10;;;;;;;10.60;1.83;;;7.00;99.70;;;;;;5070377;28;20489;-70
2022/02/19 08:45:38;;;;;;;9.03;1.97;;;7.00;99.70;;;;;;5070181;28;20427;-70
2022/02/19 08:48:06;;;;;;;8.87;2.40;;;6.90;99.70;;;;;;5067382;28;21003;-70
2022/02/19 08:50:34;;;;;;;7.73;1.97;;;7.10;99.70;;;;;;5067970;28;20546;-69
2022/02/19 08:53:00;;;;;;;5.57;1.70;;;7.10;99.70;;;;;;5066973;28;20478;-69
2022/02/19 08:55:29;;;;;;;5.70;1.77;;;7.40;99.70;;;;;;5067560;28;20477;-70
2022/02/19 08:57:56;;;;;;;4.73;2.03;;;7.90;99.70;;;;;;5063102;28;20466;-70
2022/02/19 09:00:24;;;;;;;7.17;2.37;;;8.60;99.20;;;;;;5068346;28;20446;-70
2022/02/19 09:02:50;;;;;;;5.80;2.40;;;9.10;96.90;;;;;;5069319;28;20840;-71
2022/02/19 09:05:20;;;;;;;6.47;1.90;;;8.80;97.30;;;;;;5069569;28;20435;-70
2022/02/19 09:07:46;;;;;;;3.53;1.70;;;8.80;95.90;;;;;;5064780;28;20944;-70
2022/02/19 09:10:15;;;;;;;4.80;2.00;;;8.60;98.20;;;;;;5065102;28;20868;-70
2022/02/19 09:12:46;;;;;;;6.10;2.40;;;8.40;96.80;;;;;;5069658;28;20446;-70
2022/02/19 09:15:14;;;;;;;4.67;1.80;;;8.20;96.90;;;;;;5066997;28;20474;-71
2022/02/19 09:17:42;;;;;;;4.87;1.80;;;8.20;97.40;;;;;;5067341;28;20455;-70
2022/02/19 09:20:10;;;;;;;4.50;1.80;;;8.70;97.10;;;;;;5068928;28;20800;-70
2022/02/19 09:22:37;;;;;;;4.10;1.70;;;9.30;96.30;;;;;;5066547;28;20530;-70
2022/02/19 09:25:05;;;;;;;5.40;2.33;;;10.00;94.50;;;;;;5069795;28;20438;-71
2022/02/19 09:27:32;;;;;;;4.90;1.83;;;10.00;93.20;;;;;;5069821;28;20451;-70
2022/02/19 09:30:00;;;;;;;5.43;1.73;;;11.20;92.50;;;;;;5068130;28;20827;-72
2022/02/19 09:32:27;;;;;;;6.50;2.13;;;11.50;88.80;;;;;;5068650;28;20477;-72
2022/02/19 09:34:54;;;;;;;4.27;1.67;;;11.20;91.20;;;;;;5069623;28;20553;-71
2022/02/19 09:37:21;;;;;;;5.10;2.03;;;10.70;91.40;;;;;;5066206;28;20544;-71
2022/02/19 09:39:48;;;;;;;5.87;2.30;;;11.10;89.90;;;;;;5069013;28;20856;-71
2022/02/19 09:42:17;;;;;;;5.40;1.97;;;11.20;89.80;;;;;;5069461;28;20757;-71
2022/02/19 09:44:44;;;;;;;7.63;2.20;;;11.50;89.70;;;;;;5065271;28;20490;-70
2022/02/19 09:47:12;;;;;;;6.20;1.83;;;11.80;88.80;;;;;;5069315;28;21130;-70
2022/02/19 09:49:39;;;;;;;6.63;2.00;;;11.10;88.50;;;;;;5066145;28;20465;-70
2022/02/19 09:52:07;;;;;;;5.00;1.80;;;10.90;88.50;;;;;;5069808;28;20442;-70
2022/02/19 09:54:34;;;;;;;6.93;1.80;;;10.80;87.90;;;;;;5069830;28;20838;-69
2022/02/19 09:57:00;;;;;;;6.13;1.70;;;10.80;89.00;;;;;;5069686;28;20561;-71
2022/02/19 09:59:27;;;;;;;7.23;1.83;;;10.10;90.20;;;;;;5069232;28;20443;-71
2022/02/19 10:02:01;;;;;;;7.30;1.70;;;10.20;91.30;;;;;;5068635;28;20966;-71
2022/02/19 10:04:31;;;;;;;6.00;1.90;;;10.40;91.50;;;;;;5065552;28;20475;-70
2022/02/19 10:07:12;;;;;;;7.53;2.07;;;10.20;90.10;;;;;;5063072;28;20443;-69
2022/02/19 10:09:40;;;;;;;3.60;1.87;;;10.00;91.40;;;;;;5069767;28;20525;-70
2022/02/19 10:12:09;;;;;;;3.70;1.80;;;10.00;91.20;;;;;;5073826;28;20447;-69
2022/02/19 10:14:37;;;;;;;4.20;2.13;;;10.40;91.20;;;;;;5073455;28;20474;-70
2022/02/19 10:17:11;;;;;;;7.70;2.03;;;9.90;91.40;;;;;;5069046;28;20482;-70
2022/02/19 10:19:54;;;;;;;5.37;2.00;;;9.50;92.60;;;;;;5073159;28;20946;-70
2022/02/19 10:22:23;;;;;;;7.60;2.00;;;9.50;93.30;;;;;;5072327;28;20971;-70
2022/02/19 10:24:53;;;;;;;4.20;1.63;;;9.50;93.60;;;;;;5066070;28;20487;-70
2022/02/19 10:27:20;;;;;;;4.70;1.80;;;9.50;92.50;;;;;;5071843;28;20485;-70
2022/02/19 10:29:50;;;;;;;6.80;1.87;;;9.30;94.20;;;;;;5070890;28;20489;-70
2022/02/19 10:32:17;;;;;;;6.03;2.00;;;8.90;94.80;;;;;;5071771;28;20953;-70
2022/02/19 10:34:56;;;;;;;7.90;2.07;;;9.00;94.70;;;;;;5073019;28;20466;-70
2022/02/19 10:37:25;;;;;;;4.83;1.90;;;8.80;95.10;;;;;;5072810;28;20482;-69
2022/02/19 10:39:52;;;;;;;5.23;1.73;;;8.50;95.60;;;;;;5072967;28;20449;-70
2022/02/19 10:42:19;;;;;;;11.00;2.37;;;8.50;96.30;;;;;;5072859;28;20473;-70
2022/02/19 10:44:46;;;;;;;6.30;2.03;;;8.40;96.50;;;;;;5067553;28;20996;-69
2022/02/19 10:47:21;;;;;;;7.43;1.90;;;8.40;96.30;;;;;;5065269;28;20849;-71
2022/02/19 10:50:11;;;;;;;4.20;1.87;;;8.50;96.50;;;;;;5064051;28;20445;-69
2022/02/19 10:52:40;;;;;;;3.20;1.80;;;8.50;96.00;;;;;;5093947;22;20551;-63
2022/02/19 10:55:09;;;;;;;5.77;1.60;;;8.60;96.60;;;;;;5069330;28;20946;-63
2022/02/19 10:57:40;;;;;;;12.00;2.00;;;8.30;96.30;;;;;;5070591;28;20485;-63
2022/02/19 11:00:15;;;;;;;7.00;1.90;;;8.20;97.70;;;;;;5070243;28;20455;-63
2022/02/19 11:02:43;;;;;;;4.50;1.50;;;8.20;96.50;;;;;;5062247;28;20467;-64
2022/02/19 11:05:12;;;;;;;13.97;2.30;;;8.10;96.10;;;;;;5060805;28;20439;-64
2022/02/19 11:07:41;;;;;;;14.63;2.40;;;8.10;95.90;;;;;;5067783;28;20440;-63
2022/02/19 11:10:10;;;;;;;31.30;3.30;;;7.90;95.40;;;;;;5062653;28;20439;-64
2022/02/19 11:12:37;;;;;;;9.13;1.90;;;8.10;95.20;;;;;;5067552;28;20486;-63
2022/02/19 11:15:07;;;;;;;6.87;2.20;;;7.80;94.60;;;;;;5065746;28;20435;-64
2022/02/19 11:17:35;;;;;;;13.73;1.97;;;7.70;95.20;;;;;;5063325;28;20519;-64
2022/02/19 11:20:03;;;;;;;2.67;1.50;;;7.90;96.70;;;;;;5060164;28;20973;-62
2022/02/19 11:22:34;;;;;;;17.07;2.03;;;7.80;96.20;;;;;;5055342;28;20486;-63
2022/02/19 11:25:02;;;;;;;4.93;2.20;;;8.00;95.50;;;;;;5064032;28;20446;-61
2022/02/19 11:27:30;;;;;;;5.10;1.60;;;8.10;95.10;;;;;;5063339;28;20444;-63
2022/02/19 11:30:03;;;;;;;7.13;1.87;;;8.10;95.80;;;;;;5060972;28;20458;-65
2022/02/19 11:32:32;;;;;;;30.30;3.23;;;8.10;95.50;;;;;;5048239;28;20491;-62
2022/02/19 11:34:58;;;;;;;14.13;2.37;;;8.20;95.40;;;;;;5046641;28;20471;-61
2022/02/19 11:37:26;;;;;;;7.50;1.87;;;8.20;96.20;;;;;;5054927;28;20490;-64
2022/02/19 11:40:06;;;;;;;10.17;2.73;;;8.30;94.80;;;;;;5063818;28;20447;-65
2022/02/19 11:42:39;;;;;;;5.93;1.63;;;8.30;94.30;;;;;;5072343;28;20553;-63
2022/02/19 11:45:27;;;;;;;3.93;1.70;;;8.30;94.90;;;;;;5071516;28;21154;-64
2022/02/19 11:47:56;;;;;;;6.67;1.53;;;8.20;96.00;;;;;;5072197;28;20446;-64
2022/02/19 11:50:26;;;;;;;4.10;1.73;;;8.10;95.20;;;;;;5072254;28;20541;-66
2022/02/19 11:53:26;;;;;;;6.20;1.90;;;8.10;95.50;;;;;;5071514;28;20480;-67
2022/02/19 11:55:55;;;;;;;4.27;1.57;;;8.10;95.80;;;;;;5071418;28;20516;-65
2022/02/19 11:58:24;;;;;;;7.77;1.77;;;8.20;95.60;;;;;;5065086;28;21147;-64
2022/02/19 12:00:53;;;;;;;6.33;2.20;;;8.30;95.60;;;;;;5044243;28;20464;-64
2022/02/19 12:03:25;;;;;;;9.93;2.03;;;8.30;94.10;;;;;;5059628;28;20826;-64
2022/02/19 12:06:09;;;;;;;5.47;1.67;;;8.60;95.70;;;;;;5052141;28;20463;-64
2022/02/19 12:09:08;;;;;;;4.80;2.10;;;8.70;93.80;;;;;;5051346;28;20453;-63
2022/02/19 12:12:13;;;;;;;4.63;2.13;;;8.80;94.50;;;;;;5049613;28;20472;-63
2022/02/19 12:14:56;;;;;;;8.33;2.10;;;8.80;94.40;;;;;;5061538;28;20444;-65
2022/02/19 12:17:24;;;;;;;5.97;2.40;;;8.80;94.00;;;;;;5071516;28;21005;-64
2022/02/19 12:19:59;;;;;;;6.60;2.30;;;8.70;94.10;;;;;;5071523;28;20443;-63
2022/02/19 12:22:35;;;;;;;6.80;2.10;;;9.00;95.40;;;;;;5071473;28;20466;-64
2022/02/19 12:25:03;;;;;;;12.03;2.27;;;8.90;94.20;;;;;;5060086;28;20473;-64
2022/02/19 12:27:30;;;;;;;9.90;2.23;;;9.10;94.00;;;;;;5057509;28;20468;-62
2022/02/19 12:30:22;;;;;;;4.93;2.03;;;9.00;94.20;;;;;;5049664;28;21017;-62
2022/02/19 12:32:50;;;;;;;8.30;2.33;;;9.40;94.90;;;;;;5046846;28;20463;-64
2022/02/19 12:35:17;;;;;;;8.83;1.70;;;9.20;94.20;;;;;;5062485;28;20473;-67
2022/02/19 12:37:45;;;;;;;6.10;2.30;;;9.00;94.30;;;;;;5071361;28;20486;-63
2022/02/19 12:40:19;;;;;;;8.27;1.83;;;8.90;95.40;;;;;;5071429;28;20454;-67
2022/02/19 12:42:50;;;;;;;5.00;2.10;;;8.70;95.20;;;;;;5070971;28;20477;-64
2022/02/19 12:45:18;;;;;;;3.90;1.80;;;8.60;95.10;;;;;;5071087;28;20842;-65
2022/02/19 12:47:47;;;;;;;8.63;2.23;;;8.70;96.90;;;;;;5071075;28;20870;-63
2022/02/19 12:50:15;;;;;;;6.83;1.83;;;8.70;95.50;;;;;;5071141;28;20470;-63
2022/02/19 12:52:43;;;;;;;6.90;1.70;;;8.90;96.10;;;;;;5061646;28;20490;-65
2022/02/19 12:55:16;;;;;;;6.90;2.27;;;9.00;95.60;;;;;;5057645;28;20463;-64
2022/02/19 12:57:43;;;;;;;8.10;1.87;;;9.10;94.90;;;;;;5062022;28;21071;-63
2022/02/19 13:00:10;;;;;;;3.63;1.80;;;9.10;94.30;;;;;;5061375;28;20804;-62
2022/02/19 13:02:37;;;;;;;5.83;1.80;;;9.20;92.90;;;;;;5054563;28;20845;-63
2022/02/19 13:05:09;;;;;;;4.00;1.77;;;9.30;92.50;;;;;;5062378;28;20439;-61
2022/02/19 13:07:36;;;;;;;3.30;1.73;;;9.20;91.50;;;;;;5055539;28;20840;-62
2022/02/19 13:10:05;;;;;;;3.80;1.90;;;9.40;91.10;;;;;;5061361;28;20477;-66